Time;durP1;ratioP1;P1;durP2;ratioP2;P2;SDS_P1;SDS_P2;PMS_P1;PMS_P2;Temp;Humidity;BMP_temperature;BMP_pressure;BME280_temperature;BME280_humidity;BME280_pressure;Samples;Min_cycle;Max_cycle;Signal;HPM_P1;HPM_P2
2023/05/26 00:02:01;;;;;;;20.30;5.10;;;10.50;88.70;;;;;;5025340;28;20518;-76
2023/05/26 00:04:27;;;;;;;27.83;5.90;;;10.50;87.10;;;;;;5009006;28;20551;-76
2023/05/26 00:06:54;;;;;;;24.63;5.47;;;10.40;87.10;;;;;;5023733;28;20030;-76
2023/05/26 00:09:23;;;;;;;24.05;6.03;;;10.40;87.00;;;;;;5023519;28;20088;-76
2023/05/26 00:11:49;;;;;;;20.65;5.15;;;10.40;87.20;;;;;;5021164;28;20251;-77
2023/05/26 00:14:15;;;;;;;29.30;5.07;;;10.30;88.40;;;;;;5023286;28;21210;-78
2023/05/26 00:16:42;;;;;;;20.40;4.70;;;10.10;87.20;;;;;;5009531;28;20033;-78
2023/05/26 00:19:08;;;;;;;27.48;5.15;;;10.10;89.50;;;;;;5009267;28;20046;-77
2023/05/26 00:21:36;;;;;;;26.63;5.47;;;10.10;88.90;;;;;;5009283;28;20120;-78
2023/05/26 00:24:02;;;;;;;24.20;5.95;;;10.10;90.20;;;;;;5006801;28;20034;-78
2023/05/26 00:26:28;;;;;;;23.48;5.15;;;10.00;89.50;;;;;;4991025;28;20022;-77
2023/05/26 00:28:53;;;;;;;29.90;5.88;;;10.10;91.40;;;;;;5006797;28;20485;-78
2023/05/26 00:31:19;;;;;;;23.17;4.78;;;10.10;90.40;;;;;;5007548;28;20037;-78
2023/05/26 00:33:44;;;;;;;22.13;5.32;;;10.00;89.20;;;;;;4999544;28;20084;-78
2023/05/26 00:36:10;;;;;;;26.65;6.15;;;9.90;90.80;;;;;;4985891;28;20493;-78
2023/05/26 00:38:35;;;;;;;32.65;7.15;;;9.90;90.40;;;;;;4999123;28;20087;-77
2023/05/26 00:41:01;;;;;;;25.40;5.25;;;9.80;90.70;;;;;;5008316;28;20041;-77
2023/05/26 00:43:27;;;;;;;26.77;5.60;;;9.90;91.20;;;;;;5023486;28;20029;-76
2023/05/26 00:45:52;;;;;;;30.15;6.18;;;9.90;90.70;;;;;;5003838;28;20797;-77
2023/05/26 00:48:18;;;;;;;26.27;5.45;;;9.80;91.90;;;;;;5001409;28;20029;-79
2023/05/26 00:50:43;;;;;;;27.10;5.13;;;9.80;92.60;;;;;;4999569;28;20022;-78
2023/05/26 00:53:09;;;;;;;26.95;5.63;;;9.70;91.50;;;;;;5008341;28;20040;-77
2023/05/26 00:55:34;;;;;;;31.15;6.57;;;9.60;92.00;;;;;;5021686;28;20030;-78
2023/05/26 00:58:00;;;;;;;31.38;6.97;;;9.60;92.00;;;;;;5024216;28;20129;-78
2023/05/26 01:00:26;;;;;;;30.67;7.20;;;9.60;92.00;;;;;;5022911;28;20084;-75
2023/05/26 01:02:56;;;;;;;26.10;6.25;;;9.50;93.00;;;;;;4985066;28;20026;-78
2023/05/26 01:05:22;;;;;;;31.25;5.88;;;9.50;92.40;;;;;;4996496;28;20121;-78
2023/05/26 01:07:48;;;;;;;27.85;6.03;;;9.50;92.50;;;;;;5022472;28;20100;-77
2023/05/26 01:10:13;;;;;;;22.15;6.00;;;9.50;92.30;;;;;;5022321;28;20061;-77
2023/05/26 01:12:40;;;;;;;33.58;6.40;;;9.40;93.20;;;;;;5006665;28;20022;-78
2023/05/26 01:15:17;;;;;;;29.83;5.72;;;9.40;94.60;;;;;;5022669;28;20029;-77
2023/05/26 01:18:03;;;;;;;34.70;6.13;;;9.30;94.30;;;;;;5022652;28;20087;-77
2023/05/26 01:20:38;;;;;;;30.63;6.80;;;9.40;94.60;;;;;;5025302;28;20075;-77
2023/05/26 01:23:14;;;;;;;28.15;6.50;;;9.30;93.90;;;;;;5022273;28;20041;-76
2023/05/26 01:25:47;;;;;;;26.52;4.85;;;9.20;94.20;;;;;;5023022;28;20026;-77
2023/05/26 01:28:24;;;;;;;28.73;5.10;;;9.10;96.70;;;;;;5023002;28;20049;-76
2023/05/26 01:30:50;;;;;;;23.73;4.43;;;9.10;94.70;;;;;;5016161;28;20467;-76
2023/05/26 01:33:16;;;;;;;27.63;5.13;;;9.00;96.20;;;;;;5022995;28;20061;-78
2023/05/26 01:35:42;;;;;;;30.70;5.28;;;9.00;94.20;;;;;;5005338;28;20052;-77
2023/05/26 01:38:08;;;;;;;20.65;4.38;;;8.90;96.40;;;;;;5018319;28;20049;-77
2023/05/26 01:40:33;;;;;;;24.13;5.40;;;8.80;95.10;;;;;;5005795;28;20045;-77
2023/05/26 01:43:03;;;;;;;38.15;6.35;;;8.80;96.00;;;;;;5008563;28;20103;-78
2023/05/26 01:45:45;;;;;;;28.55;5.20;;;8.80;98.00;;;;;;5019812;28;20025;-77
2023/05/26 01:48:10;;;;;;;25.17;5.15;;;8.80;98.10;;;;;;5008476;28;20627;-77
2023/05/26 01:50:45;;;;;;;29.10;6.25;;;8.70;96.60;;;;;;5007909;28;20124;-77
2023/05/26 01:53:12;;;;;;;28.05;5.88;;;8.60;97.20;;;;;;5022356;28;20120;-77
2023/05/26 01:55:38;;;;;;;23.30;4.70;;;8.60;96.80;;;;;;5022685;28;20110;-76
2023/05/26 01:58:03;;;;;;;24.77;5.75;;;8.60;96.60;;;;;;5024307;28;20033;-77
2023/05/26 02:00:29;;;;;;;32.75;6.15;;;8.50;98.70;;;;;;5006999;28;20033;-78
2023/05/26 02:02:54;;;;;;;30.08;6.30;;;8.50;98.40;;;;;;5008633;28;20064;-77
2023/05/26 02:05:20;;;;;;;33.33;5.50;;;8.40;98.70;;;;;;5020707;28;20030;-77
2023/05/26 02:07:46;;;;;;;26.45;5.25;;;8.50;97.10;;;;;;5024314;28;20029;-77
2023/05/26 02:10:11;;;;;;;34.03;6.25;;;8.30;99.20;;;;;;5023270;28;20061;-80
2023/05/26 02:12:37;;;;;;;31.17;6.93;;;8.30;99.50;;;;;;5024274;28;20033;-80
2023/05/26 02:15:03;;;;;;;32.05;6.75;;;8.20;98.30;;;;;;5023930;28;20090;-79
2023/05/26 02:17:28;;;;;;;26.77;5.68;;;8.20;99.90;;;;;;5008433;28;20025;-77
2023/05/26 02:19:55;;;;;;;25.38;5.00;;;8.20;99.90;;;;;;5024041;28;20068;-77
2023/05/26 02:22:21;;;;;;;33.63;5.88;;;8.20;99.90;;;;;;5008677;28;20038;-77
2023/05/26 02:24:46;;;;;;;28.70;4.40;;;8.20;99.90;;;;;;5009063;28;20030;-76
2023/05/26 02:27:12;;;;;;;24.88;5.68;;;8.20;99.90;;;;;;5007781;28;20033;-77
2023/05/26 02:29:37;;;;;;;35.65;5.55;;;8.10;99.90;;;;;;4989792;28;20117;-78
2023/05/26 02:32:03;;;;;;;43.63;7.35;;;8.00;99.90;;;;;;5008827;28;20037;-77
2023/05/26 02:34:29;;;;;;;23.05;5.00;;;7.90;99.90;;;;;;5024409;28;20033;-78
2023/05/26 02:36:55;;;;;;;17.33;4.20;;;7.90;99.90;;;;;;5005058;28;20036;-78
2023/05/26 02:39:22;;;;;;;26.50;5.45;;;7.90;99.90;;;;;;4984293;28;20042;-78
2023/05/26 02:41:47;;;;;;;24.20;4.80;;;7.90;99.90;;;;;;5002683;28;20072;-78
2023/05/26 02:44:13;;;;;;;28.60;4.82;;;8.00;99.90;;;;;;5020601;28;20065;-78
2023/05/26 02:46:39;;;;;;;24.67;5.97;;;7.90;99.90;;;;;;4990213;28;20477;-78
2023/05/26 02:49:05;;;;;;;27.67;5.95;;;7.90;99.90;;;;;;5006262;28;20064;-78
2023/05/26 02:51:32;;;;;;;29.95;5.43;;;7.70;99.90;;;;;;5007499;28;20057;-78
2023/05/26 02:53:57;;;;;;;27.65;5.15;;;7.70;99.90;;;;;;5022277;28;20156;-78
2023/05/26 02:56:23;;;;;;;35.78;5.43;;;7.70;99.90;;;;;;5004487;28;20092;-78
2023/05/26 02:58:49;;;;;;;27.50;5.63;;;7.70;99.90;;;;;;5008061;28;20033;-77
2023/05/26 03:01:14;;;;;;;35.40;6.38;;;7.70;99.90;;;;;;5019395;28;20096;-78
2023/05/26 03:03:40;;;;;;;38.45;5.75;;;7.60;99.90;;;;;;4995983;28;20397;-78
2023/05/26 03:06:06;;;;;;;35.78;6.57;;;7.60;99.90;;;;;;5019531;28;20527;-78
2023/05/26 03:08:31;;;;;;;28.73;5.40;;;7.50;99.90;;;;;;5019274;28;20512;-78
2023/05/26 03:10:57;;;;;;;30.42;6.03;;;7.50;99.90;;;;;;5007505;28;20041;-78
2023/05/26 03:13:22;;;;;;;32.85;7.18;;;7.50;99.90;;;;;;5021834;28;20041;-77
2023/05/26 03:15:48;;;;;;;44.17;9.57;;;7.50;99.90;;;;;;5021853;28;20037;-77
2023/05/26 03:18:14;;;;;;;33.65;7.63;;;7.50;99.90;;;;;;5005854;28;20516;-77
2023/05/26 03:20:40;;;;;;;44.75;7.93;;;7.50;99.90;;;;;;5007992;28;20392;-77
2023/05/26 03:23:06;;;;;;;35.55;7.47;;;7.50;99.90;;;;;;5008136;28;20183;-77
2023/05/26 03:25:31;;;;;;;35.50;7.28;;;7.50;99.90;;;;;;5001304;28;20073;-77
2023/05/26 03:27:57;;;;;;;33.45;7.63;;;7.40;99.90;;;;;;5022051;28;20497;-77
2023/05/26 03:30:22;;;;;;;30.27;6.75;;;7.50;99.90;;;;;;5021853;28;20052;-77
2023/05/26 03:32:48;;;;;;;34.92;8.07;;;7.60;99.90;;;;;;5004116;28;20385;-78
2023/05/26 03:35:13;;;;;;;47.95;7.68;;;7.60;99.90;;;;;;5017595;28;20033;-77
2023/05/26 03:37:39;;;;;;;41.72;7.13;;;7.50;99.90;;;;;;5007005;28;20022;-77
2023/05/26 03:40:05;;;;;;;33.78;6.53;;;7.50;99.90;;;;;;5022060;28;20064;-78
2023/05/26 03:42:31;;;;;;;40.15;6.53;;;7.70;99.90;;;;;;5023046;28;20393;-76
2023/05/26 03:44:56;;;;;;;28.83;6.90;;;7.80;99.90;;;;;;4988807;28;20037;-76
2023/05/26 03:47:22;;;;;;;28.08;6.18;;;7.90;99.90;;;;;;5006321;28;21088;-76
2023/05/26 03:49:47;;;;;;;30.45;6.20;;;7.90;99.90;;;;;;5022989;28;20033;-76
2023/05/26 03:52:13;;;;;;;31.75;6.35;;;8.00;99.90;;;;;;5008563;28;20060;-76
2023/05/26 03:54:39;;;;;;;26.52;6.38;;;8.00;99.90;;;;;;5021309;28;20037;-77
2023/05/26 03:57:05;;;;;;;33.20;8.13;;;8.10;99.90;;;;;;5007112;28;20056;-77
2023/05/26 03:59:31;;;;;;;34.83;7.22;;;8.10;99.90;;;;;;5008025;28;20133;-76
2023/05/26 04:01:57;;;;;;;37.38;7.38;;;8.10;99.90;;;;;;5006573;28;20437;-77
2023/05/26 04:04:23;;;;;;;29.17;6.43;;;8.20;99.90;;;;;;5025132;28;20498;-76
2023/05/26 04:06:49;;;;;;;33.42;7.15;;;8.30;99.90;;;;;;4991172;28;20040;-77
2023/05/26 04:09:14;;;;;;;32.38;6.82;;;8.30;99.90;;;;;;5003654;28;20061;-77
2023/05/26 04:11:40;;;;;;;28.77;6.07;;;8.40;99.90;;;;;;4992976;28;20049;-77
2023/05/26 04:14:06;;;;;;;34.28;6.47;;;8.50;99.90;;;;;;5024345;28;20037;-78
2023/05/26 04:16:32;;;;;;;42.95;7.97;;;8.50;99.90;;;;;;5018767;28;20041;-77
2023/05/26 04:18:58;;;;;;;39.30;8.30;;;8.50;99.90;;;;;;5008873;28;20477;-77
2023/05/26 04:21:24;;;;;;;34.97;6.18;;;8.60;99.90;;;;;;5025621;28;20033;-77
2023/05/26 04:23:51;;;;;;;32.22;8.20;;;8.50;99.90;;;;;;5024168;28;20029;-77
2023/05/26 04:26:17;;;;;;;33.83;6.90;;;8.40;99.90;;;;;;5022982;28;20096;-78
2023/05/26 04:28:44;;;;;;;42.33;8.00;;;8.60;99.90;;;;;;5009230;28;20042;-77
2023/05/26 04:31:10;;;;;;;28.67;6.28;;;8.70;99.90;;;;;;5022544;28;20063;-77
2023/05/26 04:33:39;;;;;;;39.65;9.80;;;8.70;99.90;;;;;;5009042;28;20115;-77
2023/05/26 04:36:08;;;;;;;41.67;8.50;;;8.80;99.90;;;;;;5023640;28;20071;-78
2023/05/26 04:38:35;;;;;;;37.45;8.32;;;8.80;99.90;;;;;;5006143;28;20037;-77
2023/05/26 04:41:06;;;;;;;34.90;7.07;;;8.90;99.90;;;;;;5025794;28;20099;-77
2023/05/26 04:43:34;;;;;;;35.47;7.22;;;8.90;99.90;;;;;;5025328;28;20112;-78
2023/05/26 04:46:01;;;;;;;30.55;6.95;;;8.90;99.90;;;;;;5007047;28;20041;-78
2023/05/26 04:48:27;;;;;;;40.65;5.88;;;9.00;99.90;;;;;;5009714;28;20110;-78
2023/05/26 04:50:53;;;;;;;30.95;6.35;;;9.10;99.90;;;;;;4992410;28;20033;-77
2023/05/26 04:53:18;;;;;;;32.40;6.25;;;9.10;99.90;;;;;;5005909;28;20469;-78
2023/05/26 04:55:44;;;;;;;26.10;6.45;;;9.10;99.90;;;;;;5001220;28;20033;-78
2023/05/26 04:58:10;;;;;;;36.00;7.65;;;9.20;99.90;;;;;;5023955;28;20034;-78
2023/05/26 05:00:36;;;;;;;43.60;8.82;;;9.20;99.90;;;;;;5006652;28;20127;-78
2023/05/26 05:03:03;;;;;;;36.42;7.07;;;9.30;99.90;;;;;;5000429;28;20026;-78
2023/05/26 05:05:31;;;;;;;40.05;6.57;;;9.40;99.90;;;;;;5003368;28;20042;-78
2023/05/26 05:07:57;;;;;;;37.78;7.82;;;9.40;99.90;;;;;;5006329;28;20548;-78
2023/05/26 05:10:23;;;;;;;32.38;6.60;;;9.50;99.90;;;;;;5008808;28;20041;-77
2023/05/26 05:12:49;;;;;;;32.22;7.63;;;9.50;99.90;;;;;;5001731;28;20057;-76
2023/05/26 05:15:15;;;;;;;34.72;7.07;;;9.60;99.90;;;;;;5024785;28;20033;-77
2023/05/26 05:17:40;;;;;;;30.77;7.43;;;9.60;99.90;;;;;;5024569;28;20026;-76
2023/05/26 05:20:07;;;;;;;33.92;7.68;;;9.70;99.90;;;;;;5004024;28;20532;-76
2023/05/26 05:22:33;;;;;;;31.90;6.75;;;9.80;99.90;;;;;;4990793;28;20042;-76
2023/05/26 05:24:58;;;;;;;39.63;8.18;;;9.90;99.90;;;;;;5022325;28;20033;-77
2023/05/26 05:27:24;;;;;;;33.00;6.63;;;10.00;99.90;;;;;;4998805;28;20042;-76
2023/05/26 05:29:50;;;;;;;30.33;7.95;;;10.00;99.90;;;;;;5026033;28;20064;-76
2023/05/26 05:32:15;;;;;;;34.28;7.78;;;10.10;99.90;;;;;;5017736;28;20048;-77
2023/05/26 05:34:41;;;;;;;27.38;6.90;;;10.20;99.90;;;;;;5006278;28;20037;-76
2023/05/26 05:37:07;;;;;;;35.15;7.65;;;10.30;99.90;;;;;;5023614;28;20037;-77
2023/05/26 05:39:32;;;;;;;40.47;7.93;;;10.30;99.90;;;;;;5025031;28;20057;-77
2023/05/26 05:41:58;;;;;;;40.13;8.55;;;10.40;99.90;;;;;;5007199;28;20095;-76
2023/05/26 05:44:24;;;;;;;32.75;6.90;;;10.50;99.90;;;;;;5005012;28;20038;-76
2023/05/26 05:46:49;;;;;;;26.48;6.95;;;10.60;99.90;;;;;;5004160;28;20805;-77
2023/05/26 05:49:15;;;;;;;41.92;7.90;;;10.70;99.90;;;;;;5018723;28;20037;-76
2023/05/26 05:51:40;;;;;;;31.88;6.57;;;10.80;99.90;;;;;;5019448;28;20033;-77
2023/05/26 05:54:06;;;;;;;40.95;6.70;;;10.90;99.90;;;;;;5006921;28;20064;-77
2023/05/26 05:56:31;;;;;;;32.97;7.47;;;11.00;99.90;;;;;;5003786;28;20041;-77
2023/05/26 05:58:57;;;;;;;21.00;6.25;;;11.10;99.90;;;;;;5005430;28;20041;-77
2023/05/26 06:01:22;;;;;;;35.63;6.07;;;11.10;99.90;;;;;;5021611;28;20033;-77
2023/05/26 06:03:48;;;;;;;24.83;6.30;;;11.20;99.90;;;;;;5021905;28;20030;-77
2023/05/26 06:06:15;;;;;;;28.88;7.90;;;11.30;99.90;;;;;;5006530;28;20037;-77
2023/05/26 06:08:40;;;;;;;26.75;8.00;;;11.40;99.90;;;;;;5007483;28;20424;-77
2023/05/26 06:11:06;;;;;;;28.83;6.40;;;11.50;99.90;;;;;;4989029;28;20047;-77
2023/05/26 06:13:32;;;;;;;35.20;7.25;;;11.60;99.90;;;;;;5010429;28;20546;-77
2023/05/26 06:15:58;;;;;;;29.02;6.63;;;11.70;99.90;;;;;;5021471;28;20037;-76
2023/05/26 06:18:23;;;;;;;27.17;5.95;;;11.80;99.90;;;;;;5021943;28;20041;-77
2023/05/26 06:20:50;;;;;;;26.67;6.10;;;11.90;99.90;;;;;;4990016;28;20089;-77
2023/05/26 06:23:16;;;;;;;31.90;7.10;;;12.00;99.90;;;;;;5019446;28;20041;-77
2023/05/26 06:25:42;;;;;;;36.30;8.57;;;12.10;99.90;;;;;;4986114;28;20519;-76
2023/05/26 06:28:07;;;;;;;33.42;7.95;;;12.20;99.90;;;;;;5022796;28;20060;-77
2023/05/26 06:30:33;;;;;;;33.42;8.05;;;12.30;99.90;;;;;;5023425;28;20099;-77
2023/05/26 06:32:59;;;;;;;32.30;8.43;;;12.40;99.90;;;;;;4988335;28;20029;-76
2023/05/26 06:35:24;;;;;;;31.40;7.40;;;12.50;99.90;;;;;;5004844;28;20038;-77
2023/05/26 06:37:50;;;;;;;32.35;7.15;;;12.50;99.90;;;;;;5023385;28;20049;-77
2023/05/26 06:40:16;;;;;;;36.15;8.95;;;12.60;99.90;;;;;;5005418;28;20069;-76
2023/05/26 06:42:41;;;;;;;33.92;8.73;;;12.70;99.90;;;;;;4980142;28;20037;-77
2023/05/26 06:45:07;;;;;;;31.92;8.50;;;12.90;99.90;;;;;;5004444;28;20045;-77
2023/05/26 06:47:33;;;;;;;29.27;8.68;;;13.00;99.90;;;;;;5023462;28;20428;-76
2023/05/26 06:49:58;;;;;;;27.65;8.50;;;13.10;99.90;;;;;;5019735;28;20517;-76
2023/05/26 06:52:29;;;;;;;32.97;8.77;;;13.20;99.90;;;;;;5005800;28;23669;-76
2023/05/26 06:54:55;;;;;;;24.13;7.57;;;13.30;99.90;;;;;;5019593;28;20061;-76
2023/05/26 06:57:20;;;;;;;29.08;7.30;;;13.40;99.90;;;;;;4984147;28;20434;-76
2023/05/26 06:59:46;;;;;;;37.50;8.85;;;13.50;99.90;;;;;;4988639;28;20481;-78
2023/05/26 07:02:11;;;;;;;38.15;7.95;;;13.60;99.90;;;;;;5018430;28;20517;-76
2023/05/26 07:04:37;;;;;;;31.45;8.63;;;13.70;99.70;;;;;;4988276;28;20029;-78
2023/05/26 07:07:03;;;;;;;31.48;7.88;;;13.90;99.50;;;;;;5005460;28;20326;-77
2023/05/26 07:09:29;;;;;;;31.73;8.93;;;14.00;99.50;;;;;;5023539;28;20481;-77
2023/05/26 07:11:54;;;;;;;23.98;6.75;;;14.10;98.80;;;;;;4987506;28;20080;-77
2023/05/26 07:14:20;;;;;;;23.92;6.72;;;14.20;97.70;;;;;;5002428;28;20484;-77
2023/05/26 07:16:46;;;;;;;29.60;8.93;;;14.30;98.60;;;;;;5013710;28;20061;-77
2023/05/26 07:19:11;;;;;;;23.75;7.10;;;14.40;98.60;;;;;;5004183;28;20200;-77
2023/05/26 07:21:37;;;;;;;34.17;9.52;;;14.60;98.40;;;;;;4986726;28;20080;-77
2023/05/26 07:24:03;;;;;;;27.10;8.05;;;14.70;98.30;;;;;;5002862;28;20044;-77
2023/05/26 07:26:28;;;;;;;35.90;8.18;;;14.90;98.20;;;;;;5005058;28;20036;-77
2023/05/26 07:28:54;;;;;;;35.13;10.13;;;15.10;98.20;;;;;;5023408;28;20414;-77
2023/05/26 07:31:19;;;;;;;32.28;8.63;;;15.40;97.90;;;;;;4992041;28;20029;-77
2023/05/26 07:33:47;;;;;;;23.50;8.13;;;15.60;97.00;;;;;;5023127;28;20022;-77
2023/05/26 07:36:13;;;;;;;31.65;9.00;;;15.70;97.30;;;;;;5022668;28;20056;-77
2023/05/26 07:38:39;;;;;;;27.48;8.60;;;15.90;96.90;;;;;;4993571;28;20118;-78
2023/05/26 07:41:04;;;;;;;35.78;9.68;;;16.10;96.20;;;;;;5008635;28;20045;-77
2023/05/26 07:43:30;;;;;;;22.67;8.13;;;16.10;95.80;;;;;;4987364;28;20033;-77
2023/05/26 07:45:56;;;;;;;31.23;7.47;;;16.10;95.30;;;;;;5024225;28;20244;-77
2023/05/26 07:48:21;;;;;;;40.80;8.57;;;16.20;95.50;;;;;;5024063;28;20389;-77
2023/05/26 07:50:47;;;;;;;34.17;8.85;;;16.40;94.90;;;;;;5002166;28;20049;-78
2023/05/26 07:53:12;;;;;;;36.47;9.48;;;16.50;94.40;;;;;;5026096;28;20037;-77
2023/05/26 07:55:38;;;;;;;27.23;7.75;;;16.80;94.60;;;;;;4990766;28;20034;-76
2023/05/26 07:58:03;;;;;;;28.38;8.00;;;16.90;93.80;;;;;;5010673;28;20116;-77
2023/05/26 08:00:29;;;;;;;27.35;9.68;;;17.20;94.80;;;;;;5025388;28;20025;-76
2023/05/26 08:02:55;;;;;;;30.02;9.80;;;17.50;94.20;;;;;;5025483;28;20056;-77
2023/05/26 08:05:20;;;;;;;26.33;8.15;;;17.90;93.60;;;;;;5006036;28;20030;-76
2023/05/26 08:07:46;;;;;;;33.08;7.53;;;18.10;93.20;;;;;;5001814;28;20120;-77
2023/05/26 08:10:12;;;;;;;26.20;8.68;;;18.30;93.70;;;;;;4991110;28;20025;-78
2023/05/26 08:12:37;;;;;;;32.85;9.23;;;18.80;92.20;;;;;;5023531;28;20393;-77
2023/05/26 08:15:04;;;;;;;30.95;7.40;;;19.20;91.50;;;;;;5016620;28;20038;-77
2023/05/26 08:17:30;;;;;;;22.60;7.22;;;19.40;91.20;;;;;;5009067;28;20125;-77
2023/05/26 08:19:56;;;;;;;24.65;6.22;;;19.60;90.30;;;;;;5024683;28;20053;-77
2023/05/26 08:22:21;;;;;;;24.50;6.70;;;19.80;88.50;;;;;;5008070;28;20041;-77
2023/05/26 08:24:47;;;;;;;29.30;7.18;;;20.00;87.80;;;;;;5007565;28;20040;-77
2023/05/26 08:27:12;;;;;;;21.33;6.28;;;20.20;84.20;;;;;;5024872;28;20029;-77
2023/05/26 08:29:38;;;;;;;33.53;7.00;;;20.30;83.30;;;;;;4991699;28;20037;-78
2023/05/26 08:32:03;;;;;;;23.52;6.50;;;20.40;84.00;;;;;;5024748;28;20049;-77
2023/05/26 08:34:29;;;;;;;34.88;6.82;;;20.50;85.30;;;;;;5018530;28;20029;-77
2023/05/26 08:36:55;;;;;;;25.55;5.93;;;20.70;81.90;;;;;;5008851;28;20477;-77
2023/05/26 08:39:20;;;;;;;20.98;5.55;;;20.80;80.20;;;;;;5006086;28;20046;-77
2023/05/26 08:41:55;;;;;;;22.00;6.45;;;20.80;81.00;;;;;;5021567;28;20033;-78
2023/05/26 08:44:20;;;;;;;19.92;5.30;;;20.90;78.50;;;;;;5018569;28;20125;-77
2023/05/26 08:46:46;;;;;;;25.42;6.80;;;21.20;79.70;;;;;;5018242;28;20022;-77
2023/05/26 08:49:14;;;;;;;27.33;6.47;;;21.20;78.10;;;;;;5007767;28;20033;-76
2023/05/26 08:51:40;;;;;;;23.38;5.65;;;21.30;78.70;;;;;;5007218;28;20052;-78
2023/05/26 08:54:06;;;;;;;26.02;6.25;;;21.30;77.70;;;;;;5006463;28;20044;-77
2023/05/26 08:56:31;;;;;;;22.23;4.97;;;21.30;76.70;;;;;;5022974;28;20084;-77
2023/05/26 08:59:00;;;;;;;21.95;5.78;;;21.40;77.80;;;;;;5006661;28;20050;-77
2023/05/26 09:01:26;;;;;;;28.42;6.85;;;21.60;77.00;;;;;;4996273;28;20386;-77
2023/05/26 09:03:52;;;;;;;23.23;6.20;;;21.60;76.20;;;;;;5009056;28;20044;-77
2023/05/26 09:06:17;;;;;;;22.50;5.97;;;21.70;76.40;;;;;;4990654;28;20409;-77
2023/05/26 09:08:43;;;;;;;27.55;6.85;;;21.80;75.30;;;;;;4988071;28;20041;-78
2023/05/26 09:11:25;;;;;;;22.75;6.07;;;21.90;76.00;;;;;;5024258;28;20531;-78
2023/05/26 09:13:54;;;;;;;22.55;6.03;;;21.90;73.50;;;;;;4990511;28;20068;-77
2023/05/26 09:16:22;;;;;;;27.65;6.10;;;22.00;75.50;;;;;;5022308;28;20037;-77
2023/05/26 09:18:47;;;;;;;24.90;6.47;;;22.20;73.60;;;;;;5007447;28;20100;-77
2023/05/26 09:21:13;;;;;;;24.15;6.20;;;22.20;72.20;;;;;;5023862;28;20037;-78
2023/05/26 09:23:38;;;;;;;33.13;6.45;;;22.20;74.20;;;;;;5002334;28;20036;-78
2023/05/26 09:26:05;;;;;;;24.77;6.65;;;22.40;72.20;;;;;;5024032;28;20049;-78
2023/05/26 09:28:31;;;;;;;26.92;6.47;;;22.60;71.20;;;;;;5024377;28;20512;-78
2023/05/26 09:30:57;;;;;;;25.25;5.65;;;22.50;70.90;;;;;;5004241;28;20102;-78
2023/05/26 09:33:22;;;;;;;24.55;6.00;;;22.60;70.40;;;;;;4324038;28;10000035;-78
2023/05/26 09:35:48;;;;;;;21.38;5.90;;;22.60;71.10;;;;;;5005872;28;20087;-78
2023/05/26 09:38:16;;;;;;;20.50;6.57;;;22.80;71.10;;;;;;5000138;28;20040;-78
2023/05/26 09:40:46;;;;;;;25.25;6.40;;;22.90;71.00;;;;;;4987793;28;20043;-78
2023/05/26 09:43:11;;;;;;;23.45;6.82;;;22.80;71.40;;;;;;4986862;28;20056;-78
2023/05/26 09:45:38;;;;;;;20.98;6.13;;;23.00;68.80;;;;;;4987767;28;20557;-79
2023/05/26 09:48:05;;;;;;;32.25;6.40;;;23.10;69.20;;;;;;5005016;28;20040;-78
2023/05/26 09:50:34;;;;;;;21.85;6.28;;;23.10;68.80;;;;;;5005615;28;20025;-78
2023/05/26 09:53:00;;;;;;;17.23;5.07;;;23.10;67.90;;;;;;5017844;28;20113;-78
2023/05/26 09:55:26;;;;;;;26.52;6.95;;;23.20;68.30;;;;;;5016776;28;20051;-78
2023/05/26 09:57:52;;;;;;;24.13;5.97;;;23.40;66.70;;;;;;5018599;28;20021;-79
2023/05/26 10:00:18;;;;;;;23.27;7.40;;;23.50;67.00;;;;;;5017100;28;20106;-79
2023/05/26 10:02:44;;;;;;;20.65;6.63;;;23.50;65.60;;;;;;4989079;28;20619;-78
2023/05/26 10:05:10;;;;;;;27.17;6.63;;;23.50;65.00;;;;;;4998815;28;20095;-78
2023/05/26 10:07:35;;;;;;;24.10;5.57;;;23.60;65.80;;;;;;5005284;28;20515;-78
2023/05/26 10:10:02;;;;;;;23.58;6.30;;;23.50;68.00;;;;;;5022738;28;20033;-78
2023/05/26 10:12:29;;;;;;;29.50;6.65;;;23.70;67.20;;;;;;4998781;28;20043;-79
2023/05/26 10:14:54;;;;;;;21.88;5.70;;;23.80;66.30;;;;;;5017909;28;20379;-78
2023/05/26 10:17:24;;;;;;;21.25;5.90;;;23.80;65.20;;;;;;4988632;28;20124;-78
2023/05/26 10:19:49;;;;;;;23.13;7.22;;;24.10;64.40;;;;;;5002929;28;20029;-78
2023/05/26 10:22:32;;;;;;;22.85;6.70;;;23.90;63.70;;;;;;5015558;28;20049;-78
2023/05/26 10:25:05;;;;;;;15.40;5.03;;;23.90;66.00;;;;;;4995439;28;20134;-79
2023/05/26 10:27:45;;;;;;;25.23;6.47;;;24.10;66.00;;;;;;5006078;28;20561;-79
2023/05/26 10:30:12;;;;;;;23.73;6.00;;;24.10;64.70;;;;;;5019781;28;20034;-78
2023/05/26 10:32:45;;;;;;;19.98;6.28;;;24.30;63.30;;;;;;5001947;28;20040;-79
2023/05/26 10:35:27;;;;;;;20.88;5.72;;;24.40;63.70;;;;;;5000385;28;20053;-78
2023/05/26 10:38:01;;;;;;;23.35;6.50;;;24.60;63.00;;;;;;5003654;28;20111;-78
2023/05/26 10:40:33;;;;;;;22.70;5.47;;;24.70;64.30;;;;;;5024785;28;20091;-78
2023/05/26 10:43:00;;;;;;;19.40;5.57;;;24.70;64.70;;;;;;5037715;28;20041;-79
2023/05/26 10:45:29;;;;;;;18.55;4.80;;;24.90;66.20;;;;;;5021921;28;20493;-79
2023/05/26 10:47:57;;;;;;;20.08;5.90;;;25.10;65.80;;;;;;5002286;28;20034;-79
2023/05/26 10:50:23;;;;;;;24.35;5.88;;;25.20;62.80;;;;;;4989588;28;20061;-78
2023/05/26 10:52:50;;;;;;;21.52;6.40;;;25.40;62.10;;;;;;5023319;28;20061;-78
2023/05/26 10:55:44;;;;;;;22.33;6.20;;;25.30;62.70;;;;;;5016801;28;20033;-78
2023/05/26 10:58:29;;;;;;;25.90;5.88;;;25.50;62.80;;;;;;5004764;28;20387;-79
2023/05/26 11:00:55;;;;;;;15.25;4.57;;;25.50;62.30;;;;;;5023629;28;20064;-78
2023/05/26 11:03:43;;;;;;;19.27;5.30;;;25.40;63.10;;;;;;5005391;28;20033;-78
2023/05/26 11:06:10;;;;;;;22.52;6.10;;;25.70;62.60;;;;;;5023691;28;20745;-77
2023/05/26 11:08:37;;;;;;;21.02;6.22;;;25.80;60.90;;;;;;5024198;28;20025;-78
2023/05/26 11:11:12;;;;;;;19.67;6.18;;;26.00;61.70;;;;;;5024492;28;20119;-77
2023/05/26 11:13:47;;;;;;;32.97;7.47;;;26.00;60.40;;;;;;5019935;28;20038;-78
2023/05/26 11:16:42;;;;;;;20.67;5.82;;;26.10;59.40;;;;;;5021012;28;20111;-78
2023/05/26 11:19:08;;;;;;;23.45;6.20;;;26.00;61.30;;;;;;5017801;28;20045;-78
2023/05/26 11:21:34;;;;;;;21.42;6.20;;;26.10;62.20;;;;;;5003727;28;20029;-78
2023/05/26 11:24:00;;;;;;;23.08;6.78;;;26.30;61.10;;;;;;5019419;28;20807;-77
2023/05/26 11:26:27;;;;;;;21.65;5.60;;;26.50;59.70;;;;;;5005778;28;20124;-77
2023/05/26 11:28:53;;;;;;;20.90;6.13;;;26.40;60.20;;;;;;5019204;28;20508;-77
2023/05/26 11:31:21;;;;;;;18.10;5.22;;;26.50;61.00;;;;;;5021415;28;20034;-78
2023/05/26 11:33:47;;;;;;;26.33;6.35;;;26.60;60.30;;;;;;5002414;28;20040;-78
2023/05/26 11:36:14;;;;;;;15.80;5.43;;;26.80;60.90;;;;;;5017397;28;20038;-78
2023/05/26 11:38:40;;;;;;;18.98;4.53;;;26.90;60.30;;;;;;5005724;28;20072;-78
2023/05/26 11:41:10;;;;;;;16.00;4.90;;;27.00;59.60;;;;;;5000533;28;20061;-78
2023/05/26 11:43:36;;;;;;;22.13;6.43;;;26.90;58.70;;;;;;5001304;28;20579;-78
2023/05/26 11:46:05;;;;;;;21.42;7.07;;;26.90;57.00;;;;;;5022064;28;20045;-77
2023/05/26 11:48:35;;;;;;;18.98;5.75;;;26.80;56.90;;;;;;5023027;28;20067;-78
2023/05/26 11:51:13;;;;;;;22.55;6.15;;;26.80;57.50;;;;;;5005716;28;20052;-77
2023/05/26 11:53:40;;;;;;;25.25;6.15;;;26.80;57.50;;;;;;5021634;28;20033;-78
2023/05/26 11:56:10;;;;;;;22.45;6.30;;;26.90;57.70;;;;;;5022254;28;20045;-77
2023/05/26 11:58:46;;;;;;;26.15;5.75;;;27.00;58.00;;;;;;5005855;28;20057;-77
2023/05/26 12:01:12;;;;;;;20.48;4.97;;;27.10;57.40;;;;;;5019665;28;20092;-78
2023/05/26 12:03:40;;;;;;;15.13;5.10;;;27.20;58.00;;;;;;5016247;28;20068;-77
2023/05/26 12:06:07;;;;;;;17.75;5.63;;;27.30;56.80;;;;;;4989800;28;20029;-78
2023/05/26 12:08:49;;;;;;;19.98;5.53;;;27.20;56.30;;;;;;5023076;28;20044;-78
2023/05/26 12:11:37;;;;;;;17.50;5.70;;;27.30;57.10;;;;;;5022395;28;20048;-78
2023/05/26 12:14:10;;;;;;;15.80;5.18;;;27.40;56.00;;;;;;5022000;28;20816;-77
2023/05/26 12:16:43;;;;;;;20.65;5.85;;;27.50;55.60;;;;;;5023627;28;20436;-77
2023/05/26 12:19:10;;;;;;;20.33;5.38;;;27.60;52.70;;;;;;5027417;28;20045;-78
2023/05/26 12:21:48;;;;;;;15.43;6.15;;;27.50;54.20;;;;;;5010347;28;20036;-78
2023/05/26 12:24:14;;;;;;;24.52;6.60;;;27.20;54.40;;;;;;5006434;28;20038;-78
2023/05/26 12:26:40;;;;;;;19.42;5.88;;;27.40;54.30;;;;;;4993940;28;20037;-78
2023/05/26 12:29:20;;;;;;;18.10;5.15;;;27.50;55.80;;;;;;4992801;28;20041;-78
2023/05/26 12:31:50;;;;;;;22.88;6.57;;;27.50;53.90;;;;;;5021383;28;20061;-78
2023/05/26 12:34:21;;;;;;;14.18;4.68;;;27.60;53.50;;;;;;5018335;28;20525;-78
2023/05/26 12:36:47;;;;;;;16.83;5.80;;;27.60;52.60;;;;;;5020732;28;20754;-78
2023/05/26 12:39:13;;;;;;;18.83;5.15;;;27.50;52.90;;;;;;5006668;28;20107;-78
2023/05/26 12:41:40;;;;;;;16.88;4.72;;;27.60;52.10;;;;;;4994453;28;20496;-77